createdAt,value
2022-07-31T00:01:32.797Z,2.90
2022-07-31T00:04:25.362Z,2.50
2022-07-31T00:07:08.460Z,2.20
2022-07-31T00:10:00.605Z,2.60
2022-07-31T00:12:53.293Z,2.30
2022-07-31T00:15:45.273Z,2.90
2022-07-31T00:18:39.627Z,2.80
2022-07-31T00:21:32.017Z,2.60
2022-07-31T00:24:24.772Z,3.00
2022-07-31T00:27:15.535Z,2.80
2022-07-31T00:30:00.205Z,2.90
2022-07-31T00:32:52.274Z,2.80
2022-07-31T00:35:44.581Z,2.90
2022-07-31T00:38:36.791Z,3.20
2022-07-31T00:41:21.499Z,3.40
2022-07-31T00:44:14.442Z,3.20
2022-07-31T00:47:07.593Z,3.40
2022-07-31T00:49:59.736Z,3.00
2022-07-31T00:52:51.921Z,3.00
2022-07-31T00:55:51.509Z,2.70
2022-07-31T00:58:24.086Z,3.30
2022-07-31T01:01:16.144Z,3.00
2022-07-31T01:03:58.162Z,3.60
2022-07-31T01:06:50.339Z,3.00
2022-07-31T01:09:42.649Z,3.20
2022-07-31T01:12:41.213Z,3.60
2022-07-31T01:15:34.673Z,2.80
2022-07-31T01:18:28.638Z,2.80
2022-07-31T01:21:18.994Z,3.10
2022-07-31T01:27:32.510Z,3.20
2022-07-31T01:30:52.985Z,2.70
2022-07-31T01:33:58.700Z,2.60
2022-07-31T01:37:01.811Z,2.50
2022-07-31T01:39:47.746Z,2.60
2022-07-31T01:42:43.669Z,2.30
2022-07-31T01:45:37.577Z,2.40
2022-07-31T01:48:33.389Z,1.90
2022-07-31T01:51:28.175Z,2.10
2022-07-31T01:54:21.823Z,1.70
2022-07-31T01:57:18.705Z,1.70
2022-07-31T02:00:23.499Z,1.50
2022-07-31T02:03:43.566Z,1.50
2022-07-31T02:06:40.798Z,1.70
2022-07-31T02:09:34.724Z,2.10
2022-07-31T02:12:32.094Z,1.60
2022-07-31T02:15:27.090Z,1.70
2022-07-31T02:18:20.049Z,2.30
2022-07-31T02:21:15.158Z,1.90
2022-07-31T02:24:07.910Z,2.00
2022-07-31T02:27:01.058Z,2.40
2022-07-31T02:29:53.895Z,1.80
2022-07-31T02:32:48.101Z,2.10
2022-07-31T02:35:44.168Z,2.40
2022-07-31T02:38:38.686Z,2.20
2022-07-31T02:41:31.112Z,2.70
2022-07-31T02:44:27.028Z,2.20
2022-07-31T02:47:19.932Z,2.60
2022-07-31T02:50:14.025Z,2.80
2022-07-31T02:53:12.674Z,2.70
2022-07-31T02:56:06.401Z,2.90
2022-07-31T02:58:58.871Z,2.70
2022-07-31T03:01:50.996Z,2.60
2022-07-31T03:04:43.312Z,2.50
2022-07-31T03:07:35.533Z,2.90
2022-07-31T03:10:28.152Z,3.10
2022-07-31T03:13:21.794Z,2.70
2022-07-31T03:16:15.701Z,3.10
2022-07-31T03:19:02.279Z,3.30
2022-07-31T03:21:56.387Z,3.30
2022-07-31T03:24:52.524Z,3.50
2022-07-31T03:27:37.656Z,3.70
2022-07-31T03:30:29.956Z,4.30
2022-07-31T03:33:22.561Z,4.20
2022-07-31T03:36:14.890Z,4.10
2022-07-31T03:39:07.401Z,4.20
2022-07-31T03:42:01.392Z,5.20
2022-07-31T03:44:44.751Z,5.40
2022-07-31T03:47:37.159Z,6.30
2022-07-31T03:50:29.733Z,6.50
2022-07-31T03:53:23.426Z,7.10
2022-07-31T03:56:17.352Z,7.00
2022-07-31T03:59:09.688Z,8.20
2022-07-31T04:02:06.020Z,8.40
2022-07-31T04:05:09.600Z,9.40
2022-07-31T04:08:02.248Z,9.20
2022-07-31T04:10:55.719Z,10.00
2022-07-31T04:13:48.173Z,10.20
2022-07-31T04:16:33.015Z,9.80
2022-07-31T04:19:25.028Z,9.40
2022-07-31T04:22:15.760Z,9.60
2022-07-31T04:25:09.593Z,9.70
2022-07-31T04:27:53.829Z,9.70
2022-07-31T04:30:46.102Z,10.50
2022-07-31T04:33:48.307Z,10.70
2022-07-31T04:36:41.683Z,10.30
2022-07-31T04:39:33.784Z,9.80
2022-07-31T04:42:26.084Z,10.70
2022-07-31T04:45:18.476Z,10.60
2022-07-31T04:47:50.589Z,10.30
2022-07-31T04:50:33.551Z,10.70
2022-07-31T04:53:07.639Z,10.60
2022-07-31T04:56:18.226Z,10.50
2022-07-31T04:58:50.205Z,10.30
2022-07-31T05:01:43.496Z,11.30
2022-07-31T05:04:35.772Z,10.20
2022-07-31T05:07:28.818Z,10.20
2022-07-31T05:10:34.368Z,8.80
2022-07-31T05:13:26.594Z,9.80
2022-07-31T05:16:19.211Z,10.70
2022-07-31T05:19:14.611Z,10.30
2022-07-31T05:22:05.587Z,10.80
2022-07-31T05:24:55.946Z,9.90
2022-07-31T05:27:50.131Z,9.40
2022-07-31T05:30:42.439Z,10.30
2022-07-31T05:33:28.748Z,10.60
2022-07-31T05:36:21.273Z,9.80
2022-07-31T05:39:13.408Z,9.60
2022-07-31T05:42:06.004Z,10.30
2022-07-31T05:44:58.863Z,9.40
2022-07-31T05:47:51.027Z,8.70
2022-07-31T05:50:44.178Z,8.40
2022-07-31T05:53:36.269Z,9.00
2022-07-31T05:56:27.866Z,8.70
2022-07-31T05:59:21.022Z,8.20
2022-07-31T06:02:12.726Z,9.00
2022-07-31T06:05:22.993Z,7.90
2022-07-31T06:08:14.920Z,7.50
2022-07-31T06:11:07.474Z,7.80
2022-07-31T06:13:59.800Z,8.00
2022-07-31T06:16:53.219Z,7.00
2022-07-31T06:19:45.296Z,7.10
2022-07-31T06:22:37.408Z,6.30
2022-07-31T06:25:32.048Z,6.60
2022-07-31T06:28:46.444Z,6.60
2022-07-31T06:31:40.520Z,5.10
2022-07-31T06:34:32.680Z,5.40
2022-07-31T06:37:26.176Z,5.00
2022-07-31T06:40:18.264Z,5.10
2022-07-31T06:42:50.420Z,4.40
2022-07-31T06:45:52.257Z,3.70
2022-07-31T06:51:34.528Z,3.10
2022-07-31T06:54:27.133Z,2.90
2022-07-31T06:57:19.707Z,3.00
2022-07-31T07:00:20.037Z,2.60
2022-07-31T07:03:12.794Z,2.30
2022-07-31T07:06:04.966Z,2.70
2022-07-31T07:08:57.218Z,3.30
2022-07-31T07:11:54.488Z,3.60
2022-07-31T07:14:46.830Z,3.20
2022-07-31T07:17:38.953Z,3.00
2022-07-31T07:20:15.975Z,3.50
2022-07-31T07:23:08.053Z,3.80
2022-07-31T07:26:00.189Z,3.60
2022-07-31T07:28:52.209Z,3.50
2022-07-31T07:31:43.902Z,3.50
2022-07-31T07:34:16.759Z,3.70
2022-07-31T07:37:08.739Z,4.00
2022-07-31T07:40:03.686Z,4.20
2022-07-31T07:43:02.953Z,4.30
2022-07-31T07:45:55.357Z,4.10
2022-07-31T07:48:37.240Z,3.70
2022-07-31T07:51:38.288Z,3.10
2022-07-31T07:54:59.239Z,3.60
2022-07-31T07:57:51.213Z,3.30
2022-07-31T08:00:41.666Z,2.60
2022-07-31T08:03:50.030Z,3.60
2022-07-31T08:06:43.814Z,3.40
2022-07-31T08:09:28.482Z,3.10
2022-07-31T08:12:26.402Z,3.20
2022-07-31T08:15:29.908Z,1.90
2022-07-31T08:18:31.871Z,2.00
2022-07-31T08:21:23.852Z,1.80
2022-07-31T08:24:16.873Z,2.00
2022-07-31T08:27:34.299Z,2.00
2022-07-31T08:30:21.885Z,2.00
2022-07-31T08:33:14.060Z,1.90
2022-07-31T08:36:09.097Z,2.00
2022-07-31T08:38:53.689Z,1.70
2022-07-31T08:41:57.204Z,1.60
2022-07-31T08:44:49.233Z,1.90
2022-07-31T08:47:43.306Z,2.10
2022-07-31T08:50:37.263Z,1.80
2022-07-31T08:53:29.412Z,2.20
2022-07-31T08:56:22.816Z,2.10
2022-07-31T08:59:17.531Z,2.70
2022-07-31T09:02:09.800Z,2.40
2022-07-31T09:05:01.878Z,2.60
2022-07-31T09:07:55.195Z,2.80
2022-07-31T09:10:49.912Z,2.50
2022-07-31T09:14:02.012Z,3.00
2022-07-31T09:16:55.679Z,2.30
2022-07-31T09:19:53.496Z,2.70
2022-07-31T09:22:46.658Z,2.70
2022-07-31T09:25:39.054Z,2.90
2022-07-31T09:28:41.653Z,3.00
2022-07-31T09:31:36.656Z,3.30
2022-07-31T09:34:34.566Z,3.30
2022-07-31T09:37:28.833Z,3.80
2022-07-31T09:40:21.436Z,3.60
2022-07-31T09:43:19.392Z,4.70
2022-07-31T09:46:12.006Z,4.90
2022-07-31T09:49:04.112Z,5.10
2022-07-31T09:51:56.243Z,5.30
2022-07-31T09:54:48.590Z,5.00
2022-07-31T09:57:52.000Z,5.00
2022-07-31T10:00:44.416Z,6.30
2022-07-31T10:03:37.929Z,5.90
2022-07-31T10:06:32.830Z,5.90
2022-07-31T10:12:08.440Z,5.80
2022-07-31T10:15:05.716Z,5.40
2022-07-31T10:17:58.164Z,4.90
2022-07-31T10:20:55.899Z,4.70
2022-07-31T10:23:50.615Z,4.80
2022-07-31T10:27:00.259Z,4.20
2022-07-31T10:29:47.523Z,5.40
2022-07-31T10:32:39.720Z,5.90
2022-07-31T10:35:32.158Z,6.00
2022-07-31T10:38:35.438Z,5.30
2022-07-31T10:41:43.151Z,4.70
2022-07-31T10:44:40.892Z,4.80
2022-07-31T10:47:48.085Z,4.60
2022-07-31T10:51:05.526Z,5.40
2022-07-31T10:54:00.593Z,5.00
2022-07-31T10:56:51.914Z,4.40
2022-07-31T10:59:52.907Z,4.50
2022-07-31T11:02:43.353Z,4.60
2022-07-31T11:06:02.427Z,3.80
2022-07-31T11:09:01.290Z,2.80
2022-07-31T11:11:51.671Z,2.80
2022-07-31T11:14:41.932Z,2.90
2022-07-31T11:18:22.235Z,2.70
2022-07-31T11:20:59.706Z,2.60
2022-07-31T11:23:56.093Z,2.00
2022-07-31T11:26:58.455Z,2.10
2022-07-31T11:30:00.805Z,2.00
2022-07-31T11:32:56.158Z,2.50
2022-07-31T11:35:48.186Z,2.70
2022-07-31T11:38:41.694Z,3.60
2022-07-31T11:41:44.282Z,2.80
2022-07-31T11:44:38.072Z,2.40
2022-07-31T11:48:11.234Z,1.90
2022-07-31T11:50:52.723Z,1.60
2022-07-31T11:53:44.759Z,1.30
2022-07-31T11:56:36.162Z,1.30
2022-07-31T11:59:45.536Z,1.70
2022-07-31T12:02:42.885Z,1.70
2022-07-31T12:05:44.316Z,1.90
2022-07-31T12:08:16.786Z,1.80
2022-07-31T12:11:11.429Z,2.30
2022-07-31T12:14:04.929Z,1.80
2022-07-31T12:16:57.035Z,1.50
2022-07-31T12:19:49.148Z,1.50
2022-07-31T12:22:41.493Z,1.30
2022-07-31T12:25:26.622Z,1.10
2022-07-31T12:28:19.039Z,1.30
2022-07-31T12:31:02.960Z,1.30
2022-07-31T12:33:55.238Z,1.40
2022-07-31T12:36:57.628Z,1.60
2022-07-31T12:40:00.263Z,1.20
2022-07-31T12:42:47.542Z,1.10
2022-07-31T12:45:40.774Z,1.10
2022-07-31T12:48:38.463Z,1.10
2022-07-31T12:51:46.632Z,1.30
2022-07-31T12:54:39.628Z,1.30
2022-07-31T12:57:14.913Z,1.40
2022-07-31T13:00:08.618Z,1.40
2022-07-31T13:03:03.506Z,1.20
2022-07-31T13:05:57.106Z,1.30
2022-07-31T13:08:49.070Z,1.10
2022-07-31T13:11:46.742Z,1.30
2022-07-31T13:14:31.498Z,1.20
2022-07-31T13:17:13.466Z,1.40
2022-07-31T13:20:06.325Z,1.50
2022-07-31T13:23:01.326Z,1.20
2022-07-31T13:25:52.291Z,1.20
2022-07-31T13:28:44.272Z,1.10
2022-07-31T13:31:36.368Z,1.10
2022-07-31T13:34:28.408Z,0.90
2022-07-31T13:37:20.486Z,0.90
2022-07-31T13:40:13.868Z,0.90
2022-07-31T13:43:05.838Z,1.30
2022-07-31T13:45:58.035Z,1.50
2022-07-31T13:48:51.793Z,1.30
2022-07-31T13:51:44.035Z,1.20
2022-07-31T13:54:36.064Z,1.50
2022-07-31T13:57:28.155Z,1.60
2022-07-31T14:00:20.550Z,1.50
2022-07-31T14:03:18.314Z,1.50
2022-07-31T14:06:12.685Z,2.20
2022-07-31T14:09:05.073Z,1.70
2022-07-31T14:11:57.078Z,2.40
2022-07-31T14:14:49.083Z,1.90
2022-07-31T14:17:41.194Z,1.40
2022-07-31T14:20:34.461Z,1.90
2022-07-31T14:23:17.378Z,1.90
2022-07-31T14:26:09.515Z,2.20
2022-07-31T14:29:06.741Z,1.90
2022-07-31T14:31:41.902Z,1.90
2022-07-31T14:34:13.775Z,2.10
2022-07-31T14:36:49.453Z,2.30
2022-07-31T14:39:42.897Z,2.10
2022-07-31T14:42:15.068Z,2.30
2022-07-31T14:45:14.993Z,2.00
2022-07-31T14:48:08.101Z,1.40
2022-07-31T14:51:00.096Z,1.40
2022-07-31T14:53:52.677Z,1.50
2022-07-31T14:57:00.732Z,1.60
2022-07-31T14:59:53.917Z,1.60
2022-07-31T15:02:46.877Z,1.50
2022-07-31T15:06:39.799Z,1.50
2022-07-31T15:08:41.898Z,1.60
2022-07-31T15:11:58.313Z,1.90
2022-07-31T15:14:45.922Z,2.50
2022-07-31T15:17:38.106Z,2.30
2022-07-31T15:20:11.405Z,2.30
2022-07-31T15:23:03.729Z,1.40
2022-07-31T15:25:55.720Z,1.50
2022-07-31T15:28:47.857Z,1.40
2022-07-31T15:31:22.454Z,1.50
2022-07-31T15:34:14.533Z,1.50
2022-07-31T15:36:46.382Z,1.50
2022-07-31T15:39:39.365Z,1.20
2022-07-31T15:42:31.481Z,2.30
2022-07-31T15:45:14.966Z,2.10
2022-07-31T15:48:10.076Z,2.00
2022-07-31T15:50:54.865Z,2.00
2022-07-31T15:53:30.012Z,1.80
2022-07-31T15:56:29.689Z,1.80
2022-07-31T15:59:21.686Z,1.70
2022-07-31T16:02:13.673Z,1.60
2022-07-31T16:05:11.375Z,2.30
2022-07-31T16:08:29.097Z,1.80
2022-07-31T16:11:24.156Z,1.50
2022-07-31T16:14:19.021Z,1.50
2022-07-31T16:16:51.607Z,1.70
2022-07-31T16:19:48.708Z,1.80
2022-07-31T16:22:42.400Z,1.20
2022-07-31T16:25:35.299Z,1.10
2022-07-31T16:28:27.367Z,1.10
2022-07-31T16:31:30.182Z,1.20
2022-07-31T16:34:22.850Z,1.10
2022-07-31T16:37:14.870Z,1.20
2022-07-31T16:40:08.628Z,1.50
2022-07-31T16:43:47.161Z,1.20
2022-07-31T16:46:32.711Z,0.90
2022-07-31T16:49:36.251Z,1.00
2022-07-31T16:52:29.168Z,1.00
2022-07-31T16:55:21.212Z,1.50
2022-07-31T16:58:33.193Z,1.10
2022-07-31T17:01:57.905Z,1.00
2022-07-31T17:04:30.591Z,1.00
2022-07-31T17:07:22.567Z,0.90
2022-07-31T17:10:14.691Z,0.90
2022-07-31T17:13:06.683Z,1.10
2022-07-31T17:15:58.742Z,1.10
2022-07-31T17:18:52.599Z,1.00
2022-07-31T17:21:46.514Z,0.90
2022-07-31T17:24:42.903Z,0.90
2022-07-31T17:27:35.418Z,1.00
2022-07-31T17:30:20.967Z,0.90
2022-07-31T17:33:04.058Z,1.00
2022-07-31T17:35:56.072Z,0.80
2022-07-31T17:38:48.109Z,1.00
2022-07-31T17:41:40.154Z,1.00
2022-07-31T17:44:32.223Z,1.00
2022-07-31T17:47:08.262Z,1.10
2022-07-31T17:50:00.616Z,1.30
2022-07-31T17:52:52.609Z,1.40
2022-07-31T17:55:44.609Z,1.20
2022-07-31T17:58:40.024Z,1.40
2022-07-31T18:01:28.442Z,1.40
2022-07-31T18:04:21.478Z,1.40
2022-07-31T18:07:17.945Z,1.20
2022-07-31T18:10:02.814Z,1.40
2022-07-31T18:12:57.573Z,1.50
2022-07-31T18:15:49.194Z,1.60
2022-07-31T18:18:41.180Z,1.60
2022-07-31T18:21:22.044Z,1.60
2022-07-31T18:24:14.223Z,1.30
2022-07-31T18:27:07.613Z,1.50
2022-07-31T18:29:54.303Z,1.70
2022-07-31T18:32:48.385Z,1.80
2022-07-31T18:35:39.199Z,2.00
2022-07-31T18:38:31.207Z,1.70
2022-07-31T18:41:13.231Z,2.10
2022-07-31T18:44:04.311Z,2.00
2022-07-31T18:46:57.158Z,2.10
2022-07-31T18:51:00.946Z,2.40
2022-07-31T18:52:55.569Z,2.40
2022-07-31T18:55:47.617Z,2.60
2022-07-31T18:58:32.612Z,3.10
2022-07-31T19:01:25.088Z,3.20
2022-07-31T19:04:07.849Z,3.30
2022-07-31T19:06:59.881Z,3.70
2022-07-31T19:09:51.901Z,3.90
2022-07-31T19:12:36.649Z,4.10
2022-07-31T19:15:28.729Z,3.90
2022-07-31T19:18:13.413Z,4.30
2022-07-31T19:21:23.086Z,4.30
2022-07-31T19:24:18.908Z,4.20
2022-07-31T19:27:11.039Z,4.30
2022-07-31T19:30:03.588Z,3.70
2022-07-31T19:32:55.887Z,4.00
2022-07-31T19:35:27.969Z,4.10
2022-07-31T19:38:21.143Z,4.70
2022-07-31T19:41:14.775Z,5.50
2022-07-31T19:43:56.709Z,4.50
2022-07-31T19:46:48.735Z,4.00
2022-07-31T19:49:44.221Z,5.00
2022-07-31T19:52:36.251Z,4.60
2022-07-31T19:55:10.774Z,4.80
2022-07-31T19:58:02.810Z,4.50
2022-07-31T20:00:54.899Z,3.90
2022-07-31T20:03:47.132Z,3.50
2022-07-31T20:06:39.422Z,3.30
2022-07-31T20:09:32.458Z,3.40
2022-07-31T20:12:24.551Z,3.30
2022-07-31T20:15:16.808Z,4.00
2022-07-31T20:18:09.002Z,3.00
2022-07-31T20:20:43.613Z,2.50
2022-07-31T20:23:38.354Z,2.60
2022-07-31T20:26:25.069Z,2.30
2022-07-31T20:29:07.204Z,2.00
2022-07-31T20:31:59.239Z,1.80
2022-07-31T20:34:51.305Z,1.60
2022-07-31T20:37:43.445Z,1.70
2022-07-31T20:40:36.528Z,1.60
2022-07-31T20:43:30.662Z,1.80
2022-07-31T20:46:22.750Z,1.60
2022-07-31T20:49:27.232Z,1.30
2022-07-31T20:52:26.746Z,1.70
2022-07-31T20:55:20.005Z,1.60
2022-07-31T20:58:12.050Z,1.40
2022-07-31T21:01:04.137Z,1.50
2022-07-31T21:03:56.230Z,1.40
2022-07-31T21:06:48.459Z,1.40
2022-07-31T21:09:23.689Z,1.40
2022-07-31T21:12:15.803Z,1.50
2022-07-31T21:15:40.888Z,1.20
2022-07-31T21:18:22.595Z,1.70
2022-07-31T21:21:14.602Z,2.10
2022-07-31T21:24:07.767Z,1.10
2022-07-31T21:27:02.265Z,1.40
2022-07-31T21:29:57.022Z,1.50
2022-07-31T21:32:49.771Z,1.30
2022-07-31T21:35:42.429Z,1.40
2022-07-31T21:38:35.360Z,1.30
2022-07-31T21:41:27.855Z,1.10
2022-07-31T21:44:20.522Z,1.30
2022-07-31T21:47:17.047Z,1.30
2022-07-31T21:50:12.617Z,1.20
2022-07-31T21:53:06.062Z,1.40
2022-07-31T21:56:02.113Z,1.10
2022-07-31T21:58:54.163Z,1.30
2022-07-31T22:01:58.007Z,1.20
2022-07-31T22:05:06.052Z,1.10
2022-07-31T22:07:58.110Z,1.50
2022-07-31T22:10:52.342Z,1.30
2022-07-31T22:13:44.398Z,1.20
2022-07-31T22:16:37.814Z,1.30
2022-07-31T22:19:30.719Z,1.40
2022-07-31T22:22:24.359Z,1.20
2022-07-31T22:25:17.947Z,1.20
2022-07-31T22:28:11.816Z,1.10
2022-07-31T22:31:04.526Z,1.30
2022-07-31T22:33:57.024Z,0.90
2022-07-31T22:36:49.111Z,1.10
2022-07-31T22:39:41.575Z,1.10
2022-07-31T22:42:33.777Z,1.10
2022-07-31T22:45:26.423Z,1.10
2022-07-31T22:48:21.692Z,1.00
2022-07-31T22:51:04.207Z,0.90
2022-07-31T22:53:36.335Z,1.00
2022-07-31T22:56:28.542Z,1.00
2022-07-31T22:59:23.559Z,0.90
2022-07-31T23:02:06.291Z,0.80
2022-07-31T23:04:58.435Z,0.90
2022-07-31T23:07:50.501Z,0.80
2022-07-31T23:10:24.586Z,0.70
2022-07-31T23:13:16.713Z,0.70
2022-07-31T23:16:08.978Z,0.70
2022-07-31T23:19:01.404Z,0.70
2022-07-31T23:21:53.435Z,0.60
2022-07-31T23:24:45.535Z,0.60
2022-07-31T23:27:39.637Z,0.60
2022-07-31T23:30:31.815Z,0.70
2022-07-31T23:33:23.874Z,0.60
2022-07-31T23:36:07.344Z,0.70
2022-07-31T23:38:59.410Z,0.80
2022-07-31T23:42:08.903Z,0.70
2022-07-31T23:45:01.058Z,0.70
2022-07-31T23:47:53.022Z,0.80
2022-07-31T23:50:45.370Z,0.70
2022-07-31T23:53:37.799Z,0.60
2022-07-31T23:56:30.163Z,0.90
2022-07-31T23:59:02.193Z,0.60
